Pagina principale
METAR-TAF:

METAR-TAF

Aeroporti :

Aeroporto di Taranto-Grottaglie

Taranto, Italia

latitudine: 40-31N, longitudine: 017-24E, altezza: 64 m

Osservazione

Il bollettino è stato emesso 3 ore e 38 minuti fa, alle 18:50 UTC
Vento calmo
Temperature 12°C
Umidità 100%
Pressione 1026 hPa
Visibilità 10 km o più
nessuna nube inferiore a 1500 m e nessun cumulonembo

METAR: LIBG 121850Z 00000KT CAVOK 12/12 Q1026

Ora: 23:28 (22:28 UTC)

Previsione

Il bollettino è stato emesso 5 ore e 28 minuti fa, alle 17:00 UTC
Previsione valida dal 12 alle 18 UTC al 13 alle 03 UTC
Vento 5 kt da direzioni variabili
Visibilità 10 km o più
Poco nuvoloso ad un'altezza di 2500 ft
Evoluzione graduale
dal 12 alle 22 UTC al 12 alle 24 UTC
Visibilità: 3000 m
foschia

TAF: LIBG 121700Z 1218/1303 VRB05KT 9999 FEW025 BECMG 1222/1224 3000 BR

Osservazioni e previsioni meteorologiche di più di 4000 aeroporti (messaggi METAR e TAF).

Le stazioni disponibili sono rappresentate dai dischi gialli e rossi sulla carta.

Puntare il mouse per vedere il nome della stazione.

Clicca sopra per visualizzare le osservazioni e previsioni meteorologiche.

Per cambiare la mappa : fare clic sui pulsanti verdi con una croce nera per ingrandire, il pulsante verde con un trattino per diminuire, o sulla freccia verde per le mappe adiacenti.


METAR-TAF: